Time;durP1;ratioP1;P1;durP2;ratioP2;P2;SDS_P1;SDS_P2;PMS_P1;PMS_P2;Temp;Humidity;BMP_temperature;BMP_pressure;BME280_temperature;BME280_humidity;BME280_pressure;Samples;Min_cycle;Max_cycle;Signal;HPM_P1;HPM_P2
2022/10/30 00:00:07;;;;;;;29.17;16.20;;;;;;;11.80;80.96;99006.06;5064853;28;20376;-79
2022/10/30 00:02:33;;;;;;;28.55;17.00;;;;;;;11.78;81.22;99002.78;5064749;28;20021;-79
2022/10/30 00:04:58;;;;;;;26.35;15.65;;;;;;;11.74;81.04;99002.56;5064806;28;20035;-78
2022/10/30 00:07:23;;;;;;;29.58;18.13;;;;;;;11.73;81.06;99002.81;5062505;28;20066;-78
2022/10/30 00:09:49;;;;;;;29.35;17.48;;;;;;;11.70;81.54;99000.66;5041786;28;20063;-79
2022/10/30 00:12:14;;;;;;;30.20;18.23;;;;;;;11.68;81.50;99000.13;5048560;28;20024;-79
2022/10/30 00:14:39;;;;;;;28.73;17.50;;;;;;;11.65;81.48;98996.03;5076157;28;20024;-79
2022/10/30 00:17:05;;;;;;;31.55;18.67;;;;;;;11.64;81.61;98999.91;5091492;28;20032;-79
2022/10/30 00:19:30;;;;;;;31.80;17.77;;;;;;;11.64;81.39;98994.41;5091557;28;20028;-79
2022/10/30 00:21:56;;;;;;;32.28;20.40;;;;;;;11.64;81.11;98993.56;5091871;28;20093;-79
2022/10/30 00:24:22;;;;;;;33.92;19.13;;;;;;;11.64;81.34;98999.06;5077625;28;20107;-80
2022/10/30 00:26:48;;;;;;;32.45;18.17;;;;;;;11.62;81.06;98996.63;5071972;28;20021;-80
2022/10/30 00:29:14;;;;;;;32.33;19.63;;;;;;;11.61;81.75;99000.47;5060901;28;20486;-80
2022/10/30 00:31:40;;;;;;;32.60;18.85;;;;;;;11.59;81.77;99011.78;5071463;28;20548;-80
2022/10/30 00:34:05;;;;;;;35.75;19.55;;;;;;;11.58;81.61;99015.63;5070479;28;20068;-80
2022/10/30 00:36:31;;;;;;;35.15;19.90;;;;;;;11.59;81.51;99005.44;5052857;28;20025;-80
2022/10/30 00:38:56;;;;;;;37.05;19.98;;;;;;;11.58;81.83;99003.81;5089844;28;20474;-80
2022/10/30 00:41:23;;;;;;;34.13;19.40;;;;;;;11.57;81.48;98997.50;5091213;28;20058;-80
2022/10/30 00:43:48;;;;;;;37.42;20.27;;;;;;;11.55;81.70;98994.22;5084291;28;20028;-79
2022/10/30 00:46:17;;;;;;;34.42;19.88;;;;;;;11.55;81.66;99005.22;5070447;28;20117;-80
2022/10/30 00:48:47;;;;;;;35.75;19.65;;;;;;;11.54;81.59;99003.56;5071154;28;20028;-80
2022/10/30 00:51:13;;;;;;;35.45;19.83;;;;;;;11.56;82.11;98997.78;5068901;28;20033;-80
2022/10/30 00:53:39;;;;;;;34.78;19.52;;;;;;;11.56;81.89;99000.53;5068012;28;20033;-81
2022/10/30 00:56:07;;;;;;;34.67;19.00;;;;;;;11.56;81.89;98995.88;5070422;28;20382;-80
2022/10/30 00:58:41;;;;;;;32.20;18.98;;;;;;;11.58;82.09;98988.16;5070468;28;20040;-80
2022/10/30 01:01:10;;;;;;;32.72;18.50;;;;;;;11.57;82.39;98992.00;5077385;28;20046;-80
2022/10/30 01:03:38;;;;;;;34.88;19.52;;;;;;;11.57;82.35;98989.25;5090378;28;20028;-79
2022/10/30 01:06:07;;;;;;;31.85;18.83;;;;;;;11.55;81.90;98985.97;5090303;28;20028;-80
2022/10/30 01:08:33;;;;;;;34.10;18.73;;;;;;;11.57;81.96;98988.44;5090759;28;20072;-80
2022/10/30 01:11:01;;;;;;;32.13;18.00;;;;;;;11.57;82.04;98994.75;5090743;28;20027;-80
2022/10/30 01:13:27;;;;;;;34.22;19.13;;;;;;;11.56;82.02;99003.28;5089792;28;20024;-81
2022/10/30 01:16:14;;;;;;;35.30;19.38;;;;;;;11.54;82.32;98989.84;5070289;28;20083;-81
2022/10/30 01:19:03;;;;;;;33.33;18.92;;;;;;;11.54;82.27;98994.50;5074152;28;20588;-81
2022/10/30 01:21:52;;;;;;;32.63;19.77;;;;;;;11.52;82.19;98997.56;5073506;28;20036;-80
2022/10/30 01:24:33;;;;;;;34.15;18.48;;;;;;;11.51;82.78;98995.91;5071198;28;20040;-81
2022/10/30 01:27:17;;;;;;;33.97;19.05;;;;;;;11.50;82.33;98998.94;5074492;28;20024;-81
2022/10/30 01:30:07;;;;;;;31.67;18.00;;;;;;;11.49;82.21;98997.28;5079322;28;20032;-80
2022/10/30 01:32:59;;;;;;;32.63;18.08;;;;;;;11.46;82.11;98991.25;5069054;28;20047;-80
2022/10/30 01:35:39;;;;;;;33.33;18.27;;;;;;;11.44;82.78;98998.97;5020290;28;20040;-80
2022/10/30 01:38:41;;;;;;;31.08;17.77;;;;;;;11.46;82.67;98984.97;5076441;28;20024;-81
2022/10/30 01:41:06;;;;;;;31.88;18.27;;;;;;;11.46;82.46;98990.47;5065559;28;20028;-81
2022/10/30 01:43:34;;;;;;;33.90;18.50;;;;;;;11.45;82.42;98988.81;5069538;28;20066;-81
2022/10/30 01:46:05;;;;;;;31.77;18.42;;;;;;;11.46;82.28;98984.97;5065063;28;20040;-80
2022/10/30 01:48:48;;;;;;;35.05;19.52;;;;;;;11.48;82.56;98993.75;5068374;28;20739;-80
2022/10/30 01:51:43;;;;;;;33.75;19.10;;;;;;;11.46;82.47;98998.69;5047429;28;20120;-80
2022/10/30 01:54:20;;;;;;;32.78;19.65;;;;;;;11.46;82.31;98999.50;5067535;28;20036;-81
2022/10/30 01:56:59;;;;;;;34.83;19.17;;;;;;;11.44;83.02;98990.72;5067776;28;20033;-80
2022/10/30 01:59:29;;;;;;;33.33;18.85;;;;;;;11.43;82.74;98999.28;5079574;28;20036;-81
2022/10/30 02:01:55;;;;;;;39.05;19.77;;;;;;;11.42;83.11;98998.44;5069726;28;20036;-80
2022/10/30 02:04:20;;;;;;;33.47;18.88;;;;;;;11.42;82.89;98992.94;5068670;28;20020;-80
2022/10/30 02:06:46;;;;;;;31.88;18.85;;;;;;;11.42;82.91;99003.13;5069042;28;20082;-80
2022/10/30 02:09:15;;;;;;;39.50;19.13;;;;;;;11.42;82.76;98992.16;5078498;28;20024;-81
2022/10/30 02:11:41;;;;;;;35.15;17.90;;;;;;;11.42;82.42;98992.94;5068579;28;20062;-81
2022/10/30 02:14:08;;;;;;;33.92;19.05;;;;;;;11.42;82.94;98994.88;5068558;28;20021;-81
2022/10/30 02:16:37;;;;;;;33.38;19.13;;;;;;;11.41;83.13;99001.50;5080968;28;20158;-81
2022/10/30 02:19:03;;;;;;;33.75;19.42;;;;;;;11.40;82.79;98997.94;5083222;28;20035;-81
2022/10/30 02:21:29;;;;;;;34.20;19.17;;;;;;;11.39;83.40;98995.47;5064788;28;20036;-81
2022/10/30 02:23:54;;;;;;;33.20;19.30;;;;;;;11.37;82.75;98995.78;5069362;28;20037;-81
2022/10/30 02:26:20;;;;;;;34.28;19.02;;;;;;;11.36;82.74;98991.38;5068291;28;20032;-81
2022/10/30 02:28:45;;;;;;;33.38;18.92;;;;;;;11.38;82.62;98993.81;5073083;28;20036;-81
2022/10/30 02:31:10;;;;;;;33.58;18.70;;;;;;;11.38;82.62;98988.34;5071993;28;20032;-81
2022/10/30 02:33:36;;;;;;;35.28;18.98;;;;;;;11.39;82.79;98981.72;5070831;28;20059;-81
2022/10/30 02:36:01;;;;;;;33.22;18.90;;;;;;;11.39;82.44;98976.25;5082269;28;20036;-82
2022/10/30 02:38:26;;;;;;;32.17;18.75;;;;;;;11.39;82.42;98971.59;5081518;28;20036;-81
2022/10/30 02:40:52;;;;;;;36.28;18.90;;;;;;;11.40;82.50;98969.63;5072202;28;20035;-81
2022/10/30 02:43:17;;;;;;;31.60;17.45;;;;;;;11.37;82.71;98957.31;5078982;28;20030;-82
2022/10/30 02:45:43;;;;;;;32.13;18.63;;;;;;;11.39;82.67;98957.84;5070472;28;20368;-81
2022/10/30 02:48:08;;;;;;;31.90;17.77;;;;;;;11.36;82.87;98947.44;5068506;28;20039;-80
2022/10/30 02:50:33;;;;;;;33.17;18.38;;;;;;;11.35;83.18;98953.22;5065606;28;20459;-82
2022/10/30 02:52:59;;;;;;;32.08;18.33;;;;;;;11.34;83.19;98949.66;5072623;28;20059;-81
2022/10/30 02:55:24;;;;;;;31.13;17.63;;;;;;;11.32;82.69;98952.69;5069484;28;20386;-80
2022/10/30 02:57:49;;;;;;;34.40;18.63;;;;;;;11.31;82.74;98959.28;5064901;28;20090;-80
2022/10/30 03:00:15;;;;;;;39.75;21.00;;;;;;;11.31;83.27;98956.53;5069974;28;20386;-81
2022/10/30 03:02:40;;;;;;;41.88;21.88;;;;;;;11.32;82.61;98960.91;5069950;28;20136;-82
2022/10/30 03:05:06;;;;;;;41.78;21.23;;;;;;;11.34;83.20;98973.53;5066292;28;20163;-81
2022/10/30 03:07:31;;;;;;;39.53;20.30;;;;;;;11.32;83.19;98971.09;5064432;28;20033;-81
2022/10/30 03:09:56;;;;;;;37.45;19.67;;;;;;;11.31;82.99;98981.25;5067508;28;20436;-82
2022/10/30 03:12:22;;;;;;;35.90;19.83;;;;;;;11.30;83.16;98985.09;5070905;28;20032;-82
2022/10/30 03:14:47;;;;;;;41.85;21.75;;;;;;;11.31;83.22;98994.97;5067709;28;20029;-82
2022/10/30 03:17:13;;;;;;;39.75;21.63;;;;;;;11.32;83.09;98999.34;5067710;28;20107;-82
2022/10/30 03:19:39;;;;;;;38.80;20.77;;;;;;;11.34;83.58;98990.00;5068283;28;20074;-82
2022/10/30 03:22:05;;;;;;;39.22;21.35;;;;;;;11.35;83.62;98997.16;5061274;28;20074;-82
2022/10/30 03:24:31;;;;;;;38.80;21.88;;;;;;;11.34;83.38;98998.25;5064522;28;20103;-82
2022/10/30 03:26:56;;;;;;;37.78;20.67;;;;;;;11.32;83.27;98998.56;5066337;28;20039;-83
2022/10/30 03:29:21;;;;;;;38.70;20.17;;;;;;;11.34;83.97;99001.84;5050690;28;20454;-82
2022/10/30 03:31:47;;;;;;;36.85;19.65;;;;;;;11.35;83.61;98997.97;5068389;28;20585;-82
2022/10/30 03:34:12;;;;;;;38.30;20.65;;;;;;;11.33;83.85;98997.44;5070023;28;20045;-81
2022/10/30 03:36:37;;;;;;;37.05;20.95;;;;;;;11.31;84.18;99000.47;5061361;28;20021;-80
2022/10/30 03:39:03;;;;;;;38.15;21.13;;;;;;;11.32;83.68;98999.34;5059402;28;20490;-81
2022/10/30 03:41:29;;;;;;;38.53;20.08;;;;;;;11.30;83.55;98998.81;5044211;28;20025;-82
2022/10/30 03:43:54;;;;;;;39.83;21.17;;;;;;;11.30;83.58;98995.28;5066816;28;20043;-82
2022/10/30 03:46:19;;;;;;;39.30;20.70;;;;;;;11.32;84.19;98993.06;5067507;28;20036;-81
2022/10/30 03:48:47;;;;;;;38.47;21.27;;;;;;;11.31;83.97;98997.72;5069275;28;20108;-82
2022/10/30 03:51:13;;;;;;;40.75;20.75;;;;;;;11.31;83.76;98988.69;5062944;28;20063;-83
2022/10/30 03:53:38;;;;;;;38.33;20.77;;;;;;;11.33;84.02;98991.97;5055979;28;20017;-83
2022/10/30 03:56:04;;;;;;;37.97;20.38;;;;;;;11.35;84.01;98997.97;5060020;28;20017;-82
2022/10/30 03:58:30;;;;;;;42.42;21.42;;;;;;;11.38;84.52;98997.41;5025557;28;20545;-83
2022/10/30 04:01:02;;;;;;;41.33;22.33;;;;;;;11.38;84.24;98991.06;5065017;28;20032;-81
2022/10/30 04:03:28;;;;;;;40.85;22.13;;;;;;;11.40;83.58;98992.44;5067259;28;20020;-81
2022/10/30 04:05:53;;;;;;;37.78;21.15;;;;;;;11.41;84.07;98985.81;5067231;28;20029;-82
2022/10/30 04:08:19;;;;;;;40.55;21.17;;;;;;;11.44;83.46;98989.94;5054074;28;20086;-83
2022/10/30 04:10:45;;;;;;;39.40;22.00;;;;;;;11.44;84.37;98993.47;5056761;28;20021;-83
2022/10/30 04:13:13;;;;;;;38.72;22.00;;;;;;;11.45;84.07;98986.06;5061934;28;20033;-83
2022/10/30 04:15:39;;;;;;;41.90;22.08;;;;;;;11.43;83.93;98977.31;5063430;28;20028;-82
2022/10/30 04:18:04;;;;;;;37.15;20.50;;;;;;;11.45;84.31;98973.16;5065943;28;20527;-83
2022/10/30 04:20:30;;;;;;;40.20;21.60;;;;;;;11.45;83.81;98966.84;5069445;28;20108;-83
2022/10/30 04:23:00;;;;;;;40.97;21.83;;;;;;;11.44;83.78;98967.97;5069320;28;20047;-83
2022/10/30 04:25:26;;;;;;;40.30;22.48;;;;;;;11.45;83.67;98969.59;5060047;28;20079;-83
2022/10/30 04:27:52;;;;;;;41.08;22.60;;;;;;;11.46;84.49;98972.03;5060763;28;20501;-83
2022/10/30 04:30:20;;;;;;;43.28;23.55;;;;;;;11.45;83.80;98981.38;5061422;28;20096;-82
2022/10/30 04:32:58;;;;;;;39.28;22.13;;;;;;;11.47;83.68;98981.91;5063827;28;20036;-83
2022/10/30 04:35:26;;;;;;;44.60;23.02;;;;;;;11.50;84.31;98994.28;5058220;28;20037;-83
2022/10/30 04:38:12;;;;;;;42.08;23.70;;;;;;;11.50;83.93;98997.03;5067617;28;20052;-83
2022/10/30 04:40:42;;;;;;;43.33;23.13;;;;;;;11.53;84.00;98990.13;5069102;28;20027;-82
2022/10/30 04:43:08;;;;;;;45.50;22.90;;;;;;;11.55;83.41;98988.72;5061960;28;20020;-82
2022/10/30 04:45:35;;;;;;;45.28;22.92;;;;;;;11.57;83.87;98989.25;5061553;28;20145;-83
2022/10/30 04:48:12;;;;;;;42.45;23.50;;;;;;;11.59;83.50;98987.03;5062335;28;20363;-83
2022/10/30 04:50:38;;;;;;;38.72;21.60;;;;;;;11.61;83.79;98987.53;5066843;28;20060;-83
2022/10/30 04:53:08;;;;;;;39.15;21.63;;;;;;;11.64;83.78;98994.41;5049976;28;20060;-83
2022/10/30 04:55:33;;;;;;;;;;;;;;;11.66;83.31;98992.19;5067022;28;20032;-83
2022/10/30 04:58:01;;;;;;;38.25;20.17;;;;;;;11.66;83.19;98988.59;5067802;28;19917;-83
2022/10/30 05:00:27;;;;;;;39.95;22.02;;;;;;;11.68;83.73;98991.88;5062859;28;20467;-82
2022/10/30 05:02:53;;;;;;;36.40;20.10;;;;;;;11.70;83.97;98986.91;5063072;28;20502;-82
2022/10/30 05:05:19;;;;;;;34.85;18.55;;;;;;;11.74;83.48;98991.56;5064622;28;20013;-82
2022/10/30 05:07:44;;;;;;;31.83;16.98;;;;;;;11.79;83.68;98979.69;5068809;28;20028;-82
2022/10/30 05:10:13;;;;;;;36.22;19.27;;;;;;;11.81;83.68;98985.72;5071248;28;20063;-84
2022/10/30 05:12:40;;;;;;;34.22;19.13;;;;;;;11.81;83.29;98993.94;5070432;28;20578;-85
2022/10/30 05:15:06;;;;;;;35.75;18.52;;;;;;;11.80;83.29;98975.03;5070368;28;20608;-85
2022/10/30 05:17:31;;;;;;;33.97;19.58;;;;;;;11.78;83.29;98972.56;5069528;28;20047;-85
2022/10/30 05:19:57;;;;;;;32.72;19.15;;;;;;;11.79;83.08;98974.19;5067561;28;20492;-86
2022/10/30 05:22:22;;;;;;;32.28;17.88;;;;;;;11.79;83.37;98968.69;5035446;28;20123;-84
2022/10/30 05:24:47;;;;;;;34.72;18.40;;;;;;;11.80;83.14;98975.03;5071380;28;20034;-83
2022/10/30 05:27:13;;;;;;;34.63;18.98;;;;;;;11.79;83.36;98984.38;5070814;28;20063;-83
2022/10/30 05:29:38;;;;;;;34.05;18.67;;;;;;;11.79;83.71;98989.88;5083341;28;20735;-83
2022/10/30 05:32:03;;;;;;;31.17;18.85;;;;;;;11.77;83.64;98981.91;5070979;28;20356;-84
2022/10/30 05:34:29;;;;;;;34.15;17.77;;;;;;;11.76;83.52;98986.59;5034351;28;20082;-84
2022/10/30 05:36:54;;;;;;;31.38;17.55;;;;;;;11.77;83.52;98988.22;5053415;28;20050;-84
2022/10/30 05:39:20;;;;;;;30.88;17.95;;;;;;;11.80;83.15;98989.56;5070594;28;20397;-84
2022/10/30 05:41:45;;;;;;;30.90;18.25;;;;;;;11.83;83.39;98994.47;5071050;28;20029;-84
2022/10/30 05:44:10;;;;;;;35.50;19.30;;;;;;;11.88;83.63;98993.59;5063822;28;20096;-84
2022/10/30 05:46:36;;;;;;;34.10;18.48;;;;;;;11.87;83.41;98986.47;5042960;28;20040;-84
2022/10/30 05:49:01;;;;;;;33.40;18.50;;;;;;;11.89;83.12;98987.00;5061266;28;20024;-84
2022/10/30 05:51:26;;;;;;;34.78;19.27;;;;;;;11.90;83.09;98994.13;5065071;28;20394;-84
2022/10/30 05:53:52;;;;;;;33.53;19.90;;;;;;;11.90;82.91;98986.72;5065196;28;20024;-84
2022/10/30 05:56:17;;;;;;;33.78;19.42;;;;;;;11.88;83.34;98996.34;5067815;28;20493;-84
2022/10/30 05:58:42;;;;;;;32.00;18.80;;;;;;;11.88;82.98;98994.44;5053383;28;20268;-83
2022/10/30 06:01:08;;;;;;;31.73;18.55;;;;;;;11.89;83.37;98992.47;5054758;28;20098;-84
2022/10/30 06:03:33;;;;;;;31.85;19.35;;;;;;;11.89;83.29;99006.22;5056479;28;20020;-84
2022/10/30 06:05:59;;;;;;;31.17;17.58;;;;;;;11.88;83.46;99001.84;5061718;28;20706;-84
2022/10/30 06:08:24;;;;;;;28.73;17.35;;;;;;;11.89;83.39;98996.06;5063105;28;20029;-83
2022/10/30 06:10:49;;;;;;;30.45;17.58;;;;;;;11.88;83.48;98990.84;5065837;28;20032;-83
2022/10/30 06:13:15;;;;;;;34.33;20.48;;;;;;;11.86;82.96;99004.06;5068643;28;20103;-84
2022/10/30 06:15:40;;;;;;;32.95;18.20;;;;;;;11.90;83.52;99010.63;5059246;28;20021;-83
2022/10/30 06:18:06;;;;;;;29.58;17.42;;;;;;;11.89;83.46;99004.31;5054880;28;20021;-83
2022/10/30 06:20:31;;;;;;;30.42;18.02;;;;;;;11.91;83.57;99006.75;5058898;28;20056;-84
2022/10/30 06:23:01;;;;;;;31.85;18.27;;;;;;;11.90;83.00;98997.72;5044616;28;20025;-84
2022/10/30 06:25:29;;;;;;;30.13;17.70;;;;;;;11.89;83.38;98995.22;5064731;28;20378;-84
2022/10/30 06:27:54;;;;;;;28.90;16.88;;;;;;;11.94;83.14;99000.69;5066271;28;20025;-85
2022/10/30 06:30:20;;;;;;;29.27;17.35;;;;;;;11.95;83.58;99012.50;5067928;28;20070;-85
2022/10/30 06:32:46;;;;;;;29.40;16.88;;;;;;;11.95;83.40;99004.25;5062549;28;20045;-85
2022/10/30 06:35:11;;;;;;;25.38;16.13;;;;;;;11.93;83.60;98998.25;5057467;28;20115;-85
2022/10/30 06:37:39;;;;;;;29.85;17.08;;;;;;;11.94;83.07;98995.19;5043241;28;20100;-84
2022/10/30 06:40:07;;;;;;;29.40;16.48;;;;;;;11.95;83.54;98996.81;5066933;28;20050;-84
2022/10/30 06:42:32;;;;;;;28.40;16.25;;;;;;;11.98;83.16;99003.69;5066058;28;20021;-84
2022/10/30 06:44:57;;;;;;;27.13;16.23;;;;;;;12.00;83.38;99007.78;5064655;28;20025;-84
2022/10/30 06:47:23;;;;;;;26.55;16.23;;;;;;;12.04;83.60;99013.50;5065061;28;20028;-84
2022/10/30 06:49:48;;;;;;;28.73;16.27;;;;;;;12.07;83.47;99007.44;5068218;28;20025;-84
2022/10/30 06:52:13;;;;;;;30.42;17.75;;;;;;;12.10;83.12;99014.28;5058298;28;20134;-84
2022/10/30 06:54:39;;;;;;;31.10;17.98;;;;;;;12.10;83.28;99009.59;5062875;28;20467;-83
2022/10/30 06:57:04;;;;;;;26.83;16.67;;;;;;;12.13;83.02;98999.97;5065640;28;20058;-84
2022/10/30 06:59:29;;;;;;;26.88;16.48;;;;;;;12.18;83.61;99006.22;5066379;28;20025;-84
2022/10/30 07:01:55;;;;;;;30.58;17.23;;;;;;;12.20;83.11;99011.44;5060711;28;20344;-83
2022/10/30 07:04:20;;;;;;;28.77;17.05;;;;;;;12.25;83.54;99013.28;5064320;28;20756;-83
2022/10/30 07:06:46;;;;;;;28.92;16.85;;;;;;;12.30;83.52;99011.28;5066684;28;20382;-84
2022/10/30 07:09:11;;;;;;;27.95;16.33;;;;;;;12.32;83.50;99011.00;5061860;28;20039;-83
2022/10/30 07:11:39;;;;;;;31.13;18.27;;;;;;;12.34;83.35;99001.34;5067461;28;20375;-83
2022/10/30 07:14:04;;;;;;;31.63;17.77;;;;;;;12.34;83.31;99009.59;5072541;28;20043;-83
2022/10/30 07:16:29;;;;;;;29.70;16.63;;;;;;;12.35;83.20;99015.91;5062958;28;20463;-84
2022/10/30 07:18:55;;;;;;;29.02;17.00;;;;;;;12.36;83.39;99012.06;5066807;28;20120;-84
2022/10/30 07:21:20;;;;;;;27.15;15.95;;;;;;;12.38;82.97;99023.59;5067319;28;20059;-84
2022/10/30 07:23:45;;;;;;;26.33;15.68;;;;;;;12.38;83.44;99020.84;5070575;28;20029;-84
2022/10/30 07:26:11;;;;;;;27.10;15.35;;;;;;;12.41;83.05;99011.16;5050057;28;20032;-82
2022/10/30 07:28:38;;;;;;;30.50;16.40;;;;;;;12.42;83.03;99010.88;5068653;28;20032;-82
2022/10/30 07:31:03;;;;;;;28.60;15.65;;;;;;;12.46;83.19;99011.09;5063570;28;20029;-82
2022/10/30 07:33:28;;;;;;;26.90;15.95;;;;;;;12.50;83.18;99014.91;5059130;28;20054;-83
2022/10/30 07:35:54;;;;;;;26.02;15.95;;;;;;;12.52;83.05;99007.16;5063561;28;20036;-83
2022/10/30 07:38:19;;;;;;;28.58;16.50;;;;;;;12.57;83.34;99014.53;5066774;28;20071;-83
2022/10/30 07:40:51;;;;;;;28.20;16.20;;;;;;;12.59;83.09;99004.88;5068012;28;20020;-83
2022/10/30 07:43:16;;;;;;;28.58;15.95;;;;;;;12.68;83.28;99016.03;5075930;28;20016;-83
2022/10/30 07:45:44;;;;;;;29.27;15.68;;;;;;;12.76;83.41;99006.28;5069636;28;20568;-83
2022/10/30 07:48:09;;;;;;;27.95;16.02;;;;;;;12.79;83.20;99006.53;5057220;28;20067;-83
2022/10/30 07:50:34;;;;;;;27.90;16.23;;;;;;;12.87;83.08;99006.94;5058573;28;20492;-84
2022/10/30 07:53:00;;;;;;;28.73;16.77;;;;;;;12.92;83.08;99012.38;5062148;28;20043;-81
2022/10/30 07:55:25;;;;;;;29.52;16.23;;;;;;;12.95;82.98;99012.63;5053374;28;20036;-87
2022/10/30 07:57:51;;;;;;;32.30;16.17;;;;;;;12.97;82.86;99014.25;5073355;28;20114;-84
2022/10/30 08:00:16;;;;;;;30.05;18.60;;;;;;;12.94;82.62;99007.41;5070666;28;20024;-85
2022/10/30 08:02:42;;;;;;;32.05;18.90;;;;;;;12.95;82.50;99000.78;5068901;28;20028;-86
2022/10/30 08:05:08;;;;;;;29.83;16.35;;;;;;;12.94;82.37;99004.63;5077641;28;20020;-88
2022/10/30 08:07:35;;;;;;;30.33;16.60;;;;;;;12.89;82.32;98999.22;5064926;28;20032;-88
2022/10/30 08:10:01;;;;;;;34.83;20.15;;;;;;;12.88;82.43;98997.56;5069394;28;20531;-88
2022/10/30 08:12:26;;;;;;;32.17;18.77;;;;;;;12.89;83.04;98996.44;5070530;28;20032;-89
2022/10/30 08:14:52;;;;;;;33.80;19.88;;;;;;;12.94;82.47;98996.38;5072192;28;20038;-89
2022/10/30 08:17:19;;;;;;;32.70;19.45;;;;;;;13.00;82.75;98997.13;5093016;28;20032;-89
2022/10/30 08:19:44;;;;;;;36.40;21.90;;;;;;;13.05;82.64;99000.63;5071118;28;20039;-86
2022/10/30 08:22:10;;;;;;;33.10;19.42;;;;;;;13.10;82.45;98994.19;5075735;28;20028;-89
2022/10/30 08:24:36;;;;;;;30.95;20.10;;;;;;;13.15;82.40;98990.56;5089796;28;20406;-89
2022/10/30 08:27:03;;;;;;;26.00;15.98;;;;;;;13.20;82.61;98993.25;5087883;28;20028;-88
2022/10/30 08:29:28;;;;;;;25.60;15.93;;;;;;;13.29;82.70;98994.16;5073997;28;20040;-89
2022/10/30 08:31:54;;;;;;;27.83;16.55;;;;;;;13.34;82.65;98998.78;5068444;28;20550;-88
2022/10/30 08:34:19;;;;;;;29.77;17.67;;;;;;;13.37;82.71;98995.44;5071319;28;20037;-88
2022/10/30 08:36:47;;;;;;;31.38;18.52;;;;;;;13.44;82.36;99000.56;5073355;28;20086;-88
2022/10/30 08:39:13;;;;;;;28.27;16.13;;;;;;;13.44;82.40;98995.91;5071477;28;20056;-88
2022/10/30 08:41:38;;;;;;;27.75;15.95;;;;;;;13.45;82.22;98992.00;5086407;28;20060;-89
2022/10/30 08:44:04;;;;;;;26.15;16.00;;;;;;;13.53;82.39;98993.25;5088196;28;20491;-89
2022/10/30 08:46:29;;;;;;;26.70;16.33;;;;;;;13.60;82.10;99001.97;5085184;28;20484;-89
2022/10/30 08:48:55;;;;;;;26.80;15.18;;;;;;;13.66;82.23;98999.91;5078335;28;20494;-89
2022/10/30 08:51:20;;;;;;;25.30;14.05;;;;;;;13.73;82.22;99007.78;5069265;28;20068;-88
2022/10/30 08:53:48;;;;;;;23.23;13.05;;;;;;;13.82;82.22;99008.72;5078674;28;20025;-85
2022/10/30 08:56:14;;;;;;;22.35;14.20;;;;;;;13.86;81.95;99001.47;5069889;28;20060;-83
2022/10/30 08:58:39;;;;;;;21.30;13.65;;;;;;;13.93;82.06;99004.66;5085548;28;20474;-83
2022/10/30 09:01:05;;;;;;;22.13;13.55;;;;;;;14.00;81.77;98998.72;5086484;28;20102;-86
2022/10/30 09:03:30;;;;;;;20.88;12.10;;;;;;;14.08;82.12;98998.00;5074868;28;20049;-88
2022/10/30 09:06:00;;;;;;;20.50;12.82;;;;;;;14.16;82.20;98999.22;5078681;28;20052;-82
2022/10/30 09:08:26;;;;;;;22.05;13.48;;;;;;;14.24;81.59;98992.19;5074781;28;20035;-82
2022/10/30 09:10:58;;;;;;;20.00;12.93;;;;;;;14.27;81.34;98992.38;5078824;28;20112;-84
2022/10/30 09:13:24;;;;;;;19.20;12.18;;;;;;;14.29;81.46;98994.81;5065633;28;20081;-81
2022/10/30 09:15:50;;;;;;;18.08;12.05;;;;;;;14.32;81.37;98990.66;5062074;28;20029;-80
2022/10/30 09:18:16;;;;;;;19.63;12.00;;;;;;;14.37;81.04;98990.53;5065115;28;20475;-80
2022/10/30 09:20:42;;;;;;;19.42;11.88;;;;;;;14.42;81.13;98991.25;5068456;28;20036;-80
2022/10/30 09:23:07;;;;;;;19.88;11.75;;;;;;;14.49;81.38;98992.78;5069811;28;20500;-81
2022/10/30 09:25:33;;;;;;;22.02;13.38;;;;;;;14.53;81.02;99000.13;5062214;28;20060;-78
2022/10/30 09:27:58;;;;;;;19.00;11.93;;;;;;;14.59;80.72;99000.84;5067939;28;20061;-79
2022/10/30 09:30:24;;;;;;;16.45;11.50;;;;;;;14.62;81.11;98993.88;5079436;28;20027;-79
2022/10/30 09:33:00;;;;;;;18.50;11.68;;;;;;;14.65;80.61;98996.00;5069014;28;20490;-79
2022/10/30 09:35:27;;;;;;;17.20;11.18;;;;;;;14.68;80.44;99001.72;5049664;28;20028;-80
2022/10/30 09:37:52;;;;;;;20.48;12.07;;;;;;;14.72;80.53;98993.69;5072912;28;20035;-81
2022/10/30 09:40:42;;;;;;;19.20;11.13;;;;;;;14.78;80.19;98992.44;5088153;28;20024;-81
2022/10/30 09:43:17;;;;;;;18.55;10.75;;;;;;;14.87;80.51;98989.75;5072800;28;20031;-80
2022/10/30 09:46:03;;;;;;;20.80;11.98;;;;;;;14.94;80.39;98987.38;5067411;28;20038;-80
2022/10/30 09:49:02;;;;;;;22.40;12.38;;;;;;;14.99;80.04;98994.72;5071221;28;20044;-79
2022/10/30 09:51:33;;;;;;;19.95;12.48;;;;;;;15.03;79.65;98982.75;5069657;28;20028;-81
2022/10/30 09:54:08;;;;;;;22.77;13.65;;;;;;;15.07;79.55;98987.63;5051870;28;20032;-81
2022/10/30 09:57:31;;;;;;;21.00;13.27;;;;;;;15.15;79.24;98984.09;5067694;28;20459;-77
2022/10/30 10:00:00;;;;;;;24.15;13.60;;;;;;;15.21;78.99;98980.09;4983000;28;20090;-78
2022/10/30 10:02:32;;;;;;;22.20;13.75;;;;;;;15.28;79.35;98976.91;5064012;28;20381;-77
2022/10/30 10:05:04;;;;;;;21.05;13.38;;;;;;;15.34;79.21;98981.13;5061912;28;20111;-78
2022/10/30 10:07:36;;;;;;;20.33;11.93;;;;;;;15.42;78.93;98974.84;5075441;28;20040;-80
2022/10/30 10:10:12;;;;;;;19.33;11.80;;;;;;;15.50;78.96;98970.50;5064981;28;20021;-83
2022/10/30 10:12:42;;;;;;;20.00;12.23;;;;;;;15.56;78.85;98972.00;5070203;28;20025;-83
2022/10/30 10:15:37;;;;;;;20.58;11.85;;;;;;;15.65;79.32;98974.84;5064298;28;20112;-81
2022/10/30 10:18:12;;;;;;;19.05;11.77;;;;;;;15.72;78.92;98977.13;5041553;28;20044;-83
2022/10/30 10:20:42;;;;;;;23.55;12.85;;;;;;;15.80;78.84;98975.53;5075153;28;20032;-79
2022/10/30 10:23:25;;;;;;;22.00;11.27;;;;;;;15.88;78.57;98972.03;5062479;28;20029;-80
2022/10/30 10:25:53;;;;;;;18.20;11.52;;;;;;;15.96;78.40;98964.91;5076343;28;20043;-83
2022/10/30 10:28:54;;;;;;;17.63;11.07;;;;;;;16.03;77.98;98970.78;5072985;28;20028;-83
2022/10/30 10:31:34;;;;;;;22.35;12.43;;;;;;;16.11;77.83;98983.00;5041649;28;20123;-82
2022/10/30 10:34:08;;;;;;;20.67;11.73;;;;;;;16.18;78.09;98975.88;5068412;28;20102;-82
2022/10/30 10:37:29;;;;;;;21.90;11.45;;;;;;;16.26;77.96;98960.44;5050001;28;20052;-82
2022/10/30 10:40:22;;;;;;;23.50;10.88;;;;;;;16.36;77.68;98945.47;4988181;28;20583;-82
2022/10/30 10:43:23;;;;;;;18.40;10.80;;;;;;;16.45;77.06;98951.84;5065535;28;20075;-83
2022/10/30 10:46:09;;;;;;;18.58;10.07;;;;;;;16.52;76.96;98946.66;5049577;28;20035;-86
2022/10/30 10:48:54;;;;;;;17.70;11.35;;;;;;;16.62;76.75;98947.47;5061763;28;20033;-80
2022/10/30 10:51:37;;;;;;;16.35;9.73;;;;;;;16.70;77.14;98943.06;5065067;28;20028;-86
2022/10/30 10:54:18;;;;;;;18.85;10.25;;;;;;;16.80;77.13;98943.56;5064534;28;20146;-85
2022/10/30 10:56:47;;;;;;;18.65;10.30;;;;;;;16.89;76.48;98943.56;5077968;28;20025;-83
2022/10/30 10:59:25;;;;;;;15.27;10.10;;;;;;;16.98;76.83;98949.13;5081077;28;20029;-83
2022/10/30 11:02:21;;;;;;;16.63;9.13;;;;;;;17.05;76.46;98941.16;5069521;28;20062;-83
2022/10/30 11:04:52;;;;;;;15.88;8.88;;;;;;;17.13;75.96;98942.25;5069670;28;20032;-84
2022/10/30 11:07:28;;;;;;;16.50;10.00;;;;;;;17.21;75.00;98946.16;5072304;28;20065;-84
2022/10/30 11:09:55;;;;;;;18.15;9.52;;;;;;;17.27;75.36;98944.84;5072935;28;20028;-85
2022/10/30 11:12:27;;;;;;;17.00;9.75;;;;;;;17.35;75.51;98948.72;5073529;28;20029;-85
2022/10/30 11:14:53;;;;;;;15.75;10.25;;;;;;;17.41;74.93;98941.88;5072526;28;20025;-86
2022/10/30 11:17:25;;;;;;;13.32;8.52;;;;;;;17.48;75.06;98933.06;5073348;28;20021;-85
2022/10/30 11:20:01;;;;;;;15.68;9.73;;;;;;;17.57;74.93;98936.59;5073002;28;20100;-85
2022/10/30 11:22:33;;;;;;;12.82;8.38;;;;;;;17.64;75.09;98934.13;5072496;28;20029;-85
2022/10/30 11:25:19;;;;;;;14.48;9.35;;;;;;;17.71;74.72;98922.53;5072312;28;20095;-87